Flight Track Log - Related Links

Times and Time Zones

All times are in EDT time to prevent confusion due to time zone crossing. See the SWA3121 flight status page for this flight to view local times or setup timezone preferences in your user account.

Time Position Orientation Groundspeed Altitude Reporting Facility
EDT Latitude Longitude Course Direction KTS MPH feet Rate Location/Type
Fri 07:52:08 PM 28.4500 -81.3000 360° North 174 200 1,600  Level Orlando TRACON
Fri 07:53:08 PM 28.5000 -81.3167 344° North 222 255 4,200 2,504 Climbing Orlando TRACON
Fri 07:54:03 PM 28.5500 -81.3500 330° Northwest 234 269 6,400 2,489 Climbing Orlando TRACON
Fri 07:56:04 PM 28.5247 -81.5411 261° West 321 369 11,500 2,818 Climbing Jacksonville Center
Fri 07:57:04 PM 28.4986 -81.6525 255° West 338 389 14,900 3,300 Climbing Jacksonville Center
Fri 07:58:04 PM 28.4664 -81.7661 252° West 363 418 18,100 2,850 Climbing Jacksonville Center
Fri 07:59:04 PM 28.4339 -81.8822 252° West 383 441 20,600 2,700 Climbing Jacksonville Center
Fri 08:00:04 PM 28.3953 -82.0147 252° West 395 455 23,500 2,550 Climbing Jacksonville Center
Fri 08:01:04 PM 28.3628 -82.1400 254° West 403 464 25,700 2,000 Climbing Jacksonville Center
Fri 08:02:04 PM 28.3278 -82.2678 253° West 409 471 27,500 1,978 Climbing Jacksonville Center
Fri 08:04:03 PM 28.2558 -82.5175 252° West 434 499 31,600 1,978 Climbing Miami Center
Fri 08:05:03 PM 28.2189 -82.6614 254° West 434 499 33,400 1,800 Climbing Miami Center
Fri 08:06:03 PM 28.1803 -82.7914 251° West 434 499 35,200 1,950 Climbing Miami Center
Fri 08:07:03 PM 28.1436 -82.9142 251° West 429 494 37,300 1,400 Climbing Miami Center
Fri 08:08:03 PM 28.1114 -83.0369 253° West 424 488 38,000 318 Climbing Miami Center
Fri 08:09:15 PM 28.0694 -83.1828 252° West 411 473 38,000  Level Miami Center
Fri 08:10:15 PM 28.0850 -83.3058 278° West 396 456 38,000  Level Miami Center
Fri 08:11:15 PM 28.1086 -83.4272 282° West 396 456 38,000  Level Miami Center
Fri 08:12:52 PM 28.1458 -83.6222 282° West 421 484 38,000  Level Jacksonville Center
Fri 08:13:52 PM 28.1681 -83.7447 282° West 414 476 38,000  Level Jacksonville Center
Fri 08:14:52 PM 28.1881 -83.8628 281° West 407 468 38,000  Level Jacksonville Center
Fri 08:15:52 PM 28.2119 -83.9878 282° West 402 463 38,000  Level Jacksonville Center
Fri 08:16:52 PM 28.2339 -84.1083 282° West 397 457 38,000  Level Jacksonville Center
Fri 08:17:52 PM 28.2536 -84.2286 281° West 397 457 38,000  Level Jacksonville Center
Fri 08:18:52 PM 28.2711 -84.3492 279° West 392 451 38,000  Level Jacksonville Center
Fri 08:19:52 PM 28.2864 -84.4647 279° West 402 463 38,000  Level Jacksonville Center
Fri 08:20:52 PM 28.3100 -84.5783 283° West 402 463 38,000  Level Jacksonville Center
Fri 08:21:52 PM 28.3250 -84.7036 278° West 397 457 38,000  Level Jacksonville Center
Fri 08:22:52 PM 28.3442 -84.8264 280° West 391 450 38,000  Level Jacksonville Center
Fri 08:23:52 PM 28.3608 -84.9472 279° West 391 450 38,000  Level Jacksonville Center
Fri 08:24:52 PM 28.3797 -85.0703 280° West 396 456 38,000  Level Jacksonville Center
Fri 08:25:52 PM 28.3986 -85.1933 280° West 396 456 38,000  Level Jacksonville Center
Fri 08:26:52 PM 28.4172 -85.3142 280° West 390 449 38,000  Level Jacksonville Center
Fri 08:27:52 PM 28.4336 -85.4372 279° West 395 455 38,000  Level Jacksonville Center
Fri 08:28:52 PM 28.4497 -85.5628 278° West 390 449 38,000  Level Jacksonville Center
Fri 08:29:52 PM 28.4703 -85.6861 281° West 390 449 38,000  Level Jacksonville Center
Fri 08:30:52 PM 28.4861 -85.8094 278° West 390 449 38,000  Level Jacksonville Center
Fri 08:31:52 PM 28.5022 -85.9325 279° West 396 456 38,000  Level Jacksonville Center
Fri 08:32:52 PM 28.5181 -86.0536 278° West 396 456 38,000  Level Jacksonville Center
Fri 08:33:52 PM 28.5358 -86.1769 279° West 395 455 38,000  Level Jacksonville Center
Fri 08:34:52 PM 28.5533 -86.2981 279° West 395 455 38,000  Level Jacksonville Center
Fri 08:35:52 PM 28.5711 -86.4192 280° West 390 449 38,000  Level Jacksonville Center
Fri 08:36:52 PM 28.5883 -86.5450 279° West 390 449 38,000  Level Jacksonville Center
Fri 08:37:52 PM 28.6017 -86.6661 277° West 398 458 38,000  Level Jacksonville Center
Fri 08:38:52 PM 28.6208 -86.7922 280° West 403 464 38,000  Level Jacksonville Center
Fri 08:39:52 PM 28.6336 -86.9133 277° West 403 464 38,000  Level Jacksonville Center
Fri 08:40:52 PM 28.6528 -87.0347 280° West 403 464 38,000  Level Jacksonville Center
Fri 08:41:52 PM 28.6675 -87.1583 278° West 403 464 38,000  Level Jacksonville Center
Fri 08:42:52 PM 28.6842 -87.2819 279° West 397 457 38,000  Level Jacksonville Center
Fri 08:43:38 PM 28.6947 -87.3750 277° West 395 455 38,000  Level Houston Center
Fri 08:44:40 PM 28.7106 -87.5003 278° West 399 459 38,000  Level Houston Center
Fri 08:45:41 PM 28.7264 -87.6242 278° West 397 457 38,000  Level Houston Center
Fri 08:46:43 PM 28.7406 -87.7500 277° West 398 458 38,000  Level Houston Center
Fri 08:47:45 PM 28.7600 -87.8972 279° West 396 456 38,000  Level Houston Center
Fri 08:48:47 PM 28.7747 -88.0208 278° West 394 453 38,000  Level Houston Center
Fri 08:49:49 PM 28.7900 -88.1383 278° West 398 458 38,000  Level Houston Center
Fri 08:50:50 PM 28.8042 -88.2631 277° West 397 457 38,000  Level Houston Center
Fri 08:51:52 PM 28.8200 -88.3875 278° West 397 457 38,000  Level Houston Center
Fri 08:52:54 PM 28.8364 -88.5386 277° West 401 461 38,000  Level Houston Center
Fri 08:53:56 PM 28.8519 -88.6636 278° West 400 460 38,000  Level Houston Center
Fri 08:54:57 PM 28.8658 -88.7892 277° West 400 460 38,000  Level Houston Center
Fri 08:55:59 PM 28.8817 -88.9142 278° West 398 458 38,000  Level Houston Center
Fri 08:57:01 PM 28.8950 -89.0419 277° West 404 465 38,000  Level Houston Center
Fri 08:58:02 PM 28.9097 -89.1667 278° West 400 460 38,000  Level Houston Center
Fri 08:59:04 PM 28.9239 -89.2928 277° West 401 461 38,000  Level Houston Center
Fri 09:00:05 PM 28.9378 -89.4172 277° West 396 456 38,000  Level Houston Center
Fri 09:01:07 PM 28.9539 -89.5661 277° West 396 456 38,000  Level Houston Center
Fri 09:02:08 PM 28.9681 -89.6925 277° West 398 458 38,000  Level Houston Center
Fri 09:03:10 PM 28.9811 -89.8150 277° West 391 450 38,000  Level Houston Center
Fri 09:04:11 PM 28.9942 -89.9389 277° West 393 452 38,000  Level Houston Center
Fri 09:05:13 PM 29.0078 -90.0611 277° West 389 448 38,000  Level Houston Center
Fri 09:06:14 PM 29.0208 -90.1839 277° West 390 449 38,000  Level Houston Center
Fri 09:07:16 PM 29.0342 -90.3058 277° West 390 449 38,000  Level Houston Center
Fri 09:08:17 PM 29.0472 -90.4289 277° West 391 450 38,000  Level Houston Center
Fri 09:09:19 PM 29.0594 -90.5531 276° West 393 452 38,000  Level Houston Center
Fri 09:10:20 PM 29.0750 -90.7006 277° West 392 451 38,000  Level Houston Center
Fri 09:11:21 PM 29.0878 -90.8250 277° West 393 452 38,000  Level Houston Center
Fri 09:12:23 PM 29.0983 -90.9464 276° West 388 447 38,000  Level Houston Center
Fri 09:13:24 PM 29.1114 -91.0731 277° West 396 456 38,000  Level Houston Center
Fri 09:14:26 PM 29.1236 -91.1981 276° West 397 457 38,000  Level Houston Center
Fri 09:15:27 PM 29.1356 -91.3228 276° West 396 456 38,000  Level Houston Center
Fri 09:16:29 PM 29.1478 -91.4467 276° West 394 453 38,000  Level Houston Center
Fri 09:17:30 PM 29.1592 -91.5703 276° West 392 451 38,000  Level Houston Center
Fri 09:18:32 PM 29.1719 -91.6961 277° West 397 457 38,000  Level Houston Center
Fri 09:19:33 PM 29.1869 -91.8511 276° West 403 464 38,000  Level Houston Center
Fri 09:20:35 PM 29.1983 -91.9772 276° West 401 461 38,000  Level Houston Center
Fri 09:21:36 PM 29.2100 -92.1028 276° West 399 459 38,000  Level Houston Center
Fri 09:22:37 PM 29.2214 -92.2286 276° West 398 458 38,000  Level Houston Center
Fri 09:23:39 PM 29.2328 -92.3542 276° West 397 457 38,000  Level Houston Center
Fri 09:24:40 PM 29.2436 -92.4775 276° West 394 453 38,000  Level Houston Center
Fri 09:25:41 PM 29.2469 -92.6033 272° West 394 453 38,000  Level Houston Center
Fri 09:26:43 PM 29.2483 -92.7303 271° West 396 456 38,000  Level Houston Center
Fri 09:27:44 PM 29.2494 -92.8561 271° West 396 456 38,000 -885 Level Houston Center
Fri 09:28:45 PM 29.2519 -92.9806 271° West 393 452 36,200 -2,098 Descending Houston Center
Fri 09:29:47 PM 29.2539 -93.1281 271° West 388 447 33,700 -1,610 Descending Houston Center
Fri 09:30:48 PM 29.2564 -93.2525 271° West 390 449 32,900 -1,475 Descending Houston Center
Fri 09:31:49 PM 29.2575 -93.3833 271° West 403 464 30,700 -2,098 Descending Houston Center
Fri 09:32:51 PM 29.2594 -93.5058 271° West 393 452 28,600 -2,049 Descending Houston Center
Fri 09:33:52 PM 29.2611 -93.6272 271° West 384 442 26,500 -2,115 Descending Houston Center
Fri 09:34:53 PM 29.2617 -93.7489 270° West 381 438 24,300 -2,213 Descending Houston Center
Fri 09:35:54 PM 29.2636 -93.8817 271° West 376 433 22,000 -2,115 Descending Houston Center
Fri 09:36:55 PM 29.2631 -93.9967 270° West 366 421 20,000 -1,967 Descending Houston Center
Fri 09:37:56 PM 29.2650 -94.1072 271° West 355 409 18,000 -1,823 Descending Houston Center
Fri 09:38:14 PM 29.2642 -94.1453 269° West 348 400 17,600 -1,875 Descending Houston Center
Fri 09:38:44 PM 29.2653 -94.1978 271° West 345 397 16,500 -2,044 Descending Houston Center
Fri 09:39:45 PM 29.2658 -94.3081 270° West 346 398 14,500 -1,967 Descending Houston Center
Fri 09:40:46 PM 29.2661 -94.4158 270° West 342 394 12,500 -1,293 Descending Houston Center
Fri 09:41:41 PM 29.2769 -94.5056 278° West 311 358 12,000 -400 Descending Houston Center
Fri 09:42:01 PM 29.2886 -94.5281 301° West 312 359 12,000 -590 Level Houston Center
Fri 09:42:42 PM 29.3217 -94.5958 299° West 300 345 11,400 -885 Descending Houston Center
Fri 09:43:02 PM 29.3300 -94.6108 303° West 300 345 11,100 -1,000 Descending Houston Center
Fri 09:43:54 PM 29.3664 -94.6883 298° West 291 335 10,200 -617 Descending Houston Center
Fri 09:44:49 PM 29.4028 -94.7606 300° West 285 328 10,000 -169 Descending Houston Center
Fri 09:45:05 PM 29.4081 -94.7700 303° West 286 329 10,000  Level Houston Center
Fri 09:45:44 PM 29.4394 -94.8353 299° West 283 326 10,000  Level Houston Center
Fri 09:46:06 PM 29.4469 -94.8489 302° West 285 328 10,000  Level Houston Center
Fri 09:46:45 PM 29.4783 -94.9119 300° West 283 326 10,000  Level Houston Center
Fri 09:47:07 PM 29.4931 -94.9428 299° West 282 325 10,000 -896 Level Houston Center
Fri 09:47:52 PM 29.5206 -95.0028 298° West 278 320 9,000 -1,377 Descending Houston Center
Fri 09:48:08 PM 29.5308 -95.0203 304° West 279 321 8,600 -1,475 Descending Houston Center
Fri 09:48:53 PM 29.5592 -95.0797 299° West 276 318 7,500 -1,475 Descending Houston Center
Fri 09:49:09 PM 29.5686 -95.0981 301° West 278 320 7,100 -1,475 Descending Houston Center
Fri 09:49:54 PM 29.5964 -95.1617 297° West 289 333 6,000 -1,082 Descending Houston Center
Fri 09:50:10 PM 29.6011 -95.1875 282° West 290 334 6,000  Level Houston Center
Fri 09:51:01 PM 29.6119 -95.2631 279° West 274 315 6,000 -811 Level Houston Center
Fri 09:52:01 PM 29.6222 -95.3508 278° West 279 321 4,500 -1,670 Descending Houston Center
Fri 09:52:56 PM 29.6514 -95.4169 297° West 282 325 2,800 -1,808 Descending Houston Center
Fri 09:53:14 PM 29.6669 -95.4369 312° West 277 319 2,300 -787 Descending Houston Center
Fri 09:53:57 PM 29.7133 -95.4528 343° North 238 274 2,000 -295 Descending Houston Center
Fri 09:54:15 PM 29.7269 -95.4436 30° Northeast 251 289 2,000  Level Houston Center
Fri 09:54:58 PM 29.7364 -95.4067 74° East 157 181 2,000  Level Houston Center
Fri 09:55:16 PM 29.7350 -95.3953 98° East 196 226 2,000 -179 Level Houston Center
Fri 09:56:05 PM 29.7111 -95.3594 128° Southeast 158 182 1,800 -488 Descending Houston Center
Fri 09:57:19 PM 29.6811 -95.3217 132° Southeast 158 182 1,000 -626 Descending Houston Center
Fri 09:58:00 PM 29.6639 -95.3025 136° Southeast 112 129 600 -590 Descending Houston Center
Fri 09:58:20 PM 29.6603 -95.2972 128° Southeast 127 146 400 -600 Descending Houston Center

Login

Don't have an account? Register now (free) for customized features, flight alerts, and more!